sensor_id;sensor_type;location;lat;lon;timestamp;temperature;humidity
23089;DHT22;11713;48.506;8.966;2023-07-31T00:00:15;15.10;99.90
23089;DHT22;11713;48.506;8.966;2023-07-31T00:02:41;15.10;99.90
23089;DHT22;11713;48.506;8.966;2023-07-31T00:05:08;15.00;99.90
23089;DHT22;11713;48.506;8.966;2023-07-31T00:07:35;15.00;99.90
23089;DHT22;11713;48.506;8.966;2023-07-31T00:10:01;14.90;99.90
23089;DHT22;11713;48.506;8.966;2023-07-31T00:12:27;14.90;99.90
23089;DHT22;11713;48.506;8.966;2023-07-31T00:14:52;14.90;99.90
23089;DHT22;11713;48.506;8.966;2023-07-31T00:17:18;14.90;99.90
23089;DHT22;11713;48.506;8.966;2023-07-31T00:19:44;14.90;99.90
23089;DHT22;11713;48.506;8.966;2023-07-31T00:22:12;14.90;99.90
23089;DHT22;11713;48.506;8.966;2023-07-31T00:24:37;14.80;99.90
23089;DHT22;11713;48.506;8.966;2023-07-31T00:27:04;14.80;99.90
23089;DHT22;11713;48.506;8.966;2023-07-31T00:29:30;14.80;99.90
23089;DHT22;11713;48.506;8.966;2023-07-31T00:31:56;14.80;99.90
23089;DHT22;11713;48.506;8.966;2023-07-31T00:34:22;14.80;99.90
23089;DHT22;11713;48.506;8.966;2023-07-31T00:36:48;14.80;99.90
23089;DHT22;11713;48.506;8.966;2023-07-31T00:39:15;14.80;99.90
23089;DHT22;11713;48.506;8.966;2023-07-31T00:41:44;14.70;99.90
23089;DHT22;11713;48.506;8.966;2023-07-31T00:44:10;14.70;99.90
23089;DHT22;11713;48.506;8.966;2023-07-31T00:46:36;14.60;99.90
23089;DHT22;11713;48.506;8.966;2023-07-31T00:49:02;14.60;99.90
23089;DHT22;11713;48.506;8.966;2023-07-31T00:51:28;14.60;99.90
23089;DHT22;11713;48.506;8.966;2023-07-31T00:53:54;14.60;99.90
23089;DHT22;11713;48.506;8.966;2023-07-31T00:56:22;14.60;99.90
23089;DHT22;11713;48.506;8.966;2023-07-31T00:58:48;14.60;99.90
23089;DHT22;11713;48.506;8.966;2023-07-31T01:01:13;14.60;99.90
23089;DHT22;11713;48.506;8.966;2023-07-31T01:03:39;14.60;99.90
23089;DHT22;11713;48.506;8.966;2023-07-31T01:09:04;14.70;99.90
23089;DHT22;11713;48.506;8.966;2023-07-31T01:11:35;14.70;99.90
23089;DHT22;11713;48.506;8.966;2023-07-31T01:14:02;14.60;99.90
23089;DHT22;11713;48.506;8.966;2023-07-31T01:16:28;14.70;99.90
23089;DHT22;11713;48.506;8.966;2023-07-31T01:18:54;14.70;99.90
23089;DHT22;11713;48.506;8.966;2023-07-31T01:27:17;14.60;99.90
23089;DHT22;11713;48.506;8.966;2023-07-31T01:30:11;14.60;99.90
23089;DHT22;11713;48.506;8.966;2023-07-31T01:32:43;14.50;99.90
23089;DHT22;11713;48.506;8.966;2023-07-31T01:35:12;14.60;99.90
23089;DHT22;11713;48.506;8.966;2023-07-31T01:37:38;14.50;99.90
23089;DHT22;11713;48.506;8.966;2023-07-31T01:40:04;14.50;99.90
23089;DHT22;11713;48.506;8.966;2023-07-31T01:42:31;14.50;99.90
23089;DHT22;11713;48.506;8.966;2023-07-31T01:44:56;14.40;99.90
23089;DHT22;11713;48.506;8.966;2023-07-31T01:47:22;14.30;99.90
23089;DHT22;11713;48.506;8.966;2023-07-31T01:49:49;14.30;99.90
23089;DHT22;11713;48.506;8.966;2023-07-31T01:52:15;14.20;99.90
23089;DHT22;11713;48.506;8.966;2023-07-31T01:54:41;14.20;99.90
23089;DHT22;11713;48.506;8.966;2023-07-31T01:57:07;14.20;99.90
23089;DHT22;11713;48.506;8.966;2023-07-31T01:59:33;14.30;99.90
23089;DHT22;11713;48.506;8.966;2023-07-31T02:01:59;14.40;99.90
23089;DHT22;11713;48.506;8.966;2023-07-31T02:04:25;14.50;99.90
23089;DHT22;11713;48.506;8.966;2023-07-31T02:06:50;14.50;99.90
23089;DHT22;11713;48.506;8.966;2023-07-31T02:09:16;14.60;99.90
23089;DHT22;11713;48.506;8.966;2023-07-31T02:11:42;14.70;99.90
23089;DHT22;11713;48.506;8.966;2023-07-31T02:14:09;14.70;99.90
23089;DHT22;11713;48.506;8.966;2023-07-31T02:16:35;14.60;99.90
23089;DHT22;11713;48.506;8.966;2023-07-31T02:19:01;14.60;99.90
23089;DHT22;11713;48.506;8.966;2023-07-31T02:21:26;14.50;99.90
23089;DHT22;11713;48.506;8.966;2023-07-31T02:23:52;14.50;99.90
23089;DHT22;11713;48.506;8.966;2023-07-31T02:26:18;14.40;99.90
23089;DHT22;11713;48.506;8.966;2023-07-31T02:28:44;14.40;99.90
23089;DHT22;11713;48.506;8.966;2023-07-31T02:31:11;14.30;99.90
23089;DHT22;11713;48.506;8.966;2023-07-31T02:33:37;14.30;99.90
23089;DHT22;11713;48.506;8.966;2023-07-31T02:36:03;14.20;99.90
23089;DHT22;11713;48.506;8.966;2023-07-31T02:38:28;14.20;99.90
23089;DHT22;11713;48.506;8.966;2023-07-31T02:40:54;14.20;99.90
23089;DHT22;11713;48.506;8.966;2023-07-31T02:43:20;14.10;99.90
23089;DHT22;11713;48.506;8.966;2023-07-31T02:45:50;14.00;99.90
23089;DHT22;11713;48.506;8.966;2023-07-31T02:48:16;14.00;99.90
23089;DHT22;11713;48.506;8.966;2023-07-31T02:50:42;14.10;99.90
23089;DHT22;11713;48.506;8.966;2023-07-31T02:53:08;14.20;99.90
23089;DHT22;11713;48.506;8.966;2023-07-31T02:55:33;14.20;99.90
23089;DHT22;11713;48.506;8.966;2023-07-31T02:57:59;14.20;99.90
23089;DHT22;11713;48.506;8.966;2023-07-31T03:00:25;14.20;99.90
23089;DHT22;11713;48.506;8.966;2023-07-31T03:02:51;14.20;99.90
23089;DHT22;11713;48.506;8.966;2023-07-31T03:05:16;14.10;99.90
23089;DHT22;11713;48.506;8.966;2023-07-31T03:07:42;14.20;99.90
23089;DHT22;11713;48.506;8.966;2023-07-31T03:10:08;14.10;99.90
23089;DHT22;11713;48.506;8.966;2023-07-31T03:12:34;14.10;99.90
23089;DHT22;11713;48.506;8.966;2023-07-31T03:15:00;14.10;99.90
23089;DHT22;11713;48.506;8.966;2023-07-31T03:17:26;13.90;99.90
23089;DHT22;11713;48.506;8.966;2023-07-31T03:19:51;13.80;99.90
23089;DHT22;11713;48.506;8.966;2023-07-31T03:22:17;13.70;99.90
23089;DHT22;11713;48.506;8.966;2023-07-31T03:24:43;13.70;99.90
23089;DHT22;11713;48.506;8.966;2023-07-31T03:27:09;13.70;99.90
23089;DHT22;11713;48.506;8.966;2023-07-31T03:29:35;13.70;99.90
23089;DHT22;11713;48.506;8.966;2023-07-31T03:32:01;13.70;99.90
23089;DHT22;11713;48.506;8.966;2023-07-31T03:34:27;13.70;99.90
23089;DHT22;11713;48.506;8.966;2023-07-31T03:36:53;13.70;99.90
23089;DHT22;11713;48.506;8.966;2023-07-31T03:39:19;13.70;99.90
23089;DHT22;11713;48.506;8.966;2023-07-31T03:41:44;13.60;99.90
23089;DHT22;11713;48.506;8.966;2023-07-31T03:44:10;13.50;99.90
23089;DHT22;11713;48.506;8.966;2023-07-31T03:46:36;13.50;99.90
23089;DHT22;11713;48.506;8.966;2023-07-31T03:49:02;13.60;99.90
23089;DHT22;11713;48.506;8.966;2023-07-31T03:51:27;13.60;99.90
23089;DHT22;11713;48.506;8.966;2023-07-31T03:53:54;13.70;99.90
23089;DHT22;11713;48.506;8.966;2023-07-31T03:56:20;13.70;99.90
23089;DHT22;11713;48.506;8.966;2023-07-31T03:58:45;13.70;99.90
23089;DHT22;11713;48.506;8.966;2023-07-31T04:01:11;13.80;99.90
23089;DHT22;11713;48.506;8.966;2023-07-31T04:03:37;13.80;99.90
23089;DHT22;11713;48.506;8.966;2023-07-31T04:06:03;13.90;99.90
23089;DHT22;11713;48.506;8.966;2023-07-31T04:08:28;13.90;99.90
23089;DHT22;11713;48.506;8.966;2023-07-31T04:10:54;14.00;99.90
23089;DHT22;11713;48.506;8.966;2023-07-31T04:13:22;14.00;99.90
23089;DHT22;11713;48.506;8.966;2023-07-31T04:15:51;14.10;99.90
23089;DHT22;11713;48.506;8.966;2023-07-31T04:18:17;14.00;99.90
23089;DHT22;11713;48.506;8.966;2023-07-31T04:20:43;14.10;99.90
23089;DHT22;11713;48.506;8.966;2023-07-31T04:23:08;14.10;99.90
23089;DHT22;11713;48.506;8.966;2023-07-31T04:25:34;14.10;99.90
23089;DHT22;11713;48.506;8.966;2023-07-31T04:28:01;14.20;99.90
23089;DHT22;11713;48.506;8.966;2023-07-31T04:30:26;14.20;99.90
23089;DHT22;11713;48.506;8.966;2023-07-31T04:32:52;14.20;99.90
23089;DHT22;11713;48.506;8.966;2023-07-31T04:35:18;14.20;99.90
23089;DHT22;11713;48.506;8.966;2023-07-31T04:37:44;14.20;99.90
23089;DHT22;11713;48.506;8.966;2023-07-31T04:40:12;14.10;99.90
23089;DHT22;11713;48.506;8.966;2023-07-31T04:42:37;14.10;99.90
23089;DHT22;11713;48.506;8.966;2023-07-31T04:45:04;14.10;99.90
23089;DHT22;11713;48.506;8.966;2023-07-31T04:47:30;14.20;99.90
23089;DHT22;11713;48.506;8.966;2023-07-31T04:49:56;14.20;99.90
23089;DHT22;11713;48.506;8.966;2023-07-31T04:52:22;14.20;99.90
23089;DHT22;11713;48.506;8.966;2023-07-31T04:54:48;14.30;99.90
23089;DHT22;11713;48.506;8.966;2023-07-31T04:57:14;14.30;99.90
23089;DHT22;11713;48.506;8.966;2023-07-31T04:59:40;14.30;99.90
23089;DHT22;11713;48.506;8.966;2023-07-31T05:02:08;14.40;99.90
23089;DHT22;11713;48.506;8.966;2023-07-31T05:04:33;14.50;99.90
23089;DHT22;11713;48.506;8.966;2023-07-31T05:06:59;14.50;99.90
23089;DHT22;11713;48.506;8.966;2023-07-31T05:09:25;14.50;99.90
23089;DHT22;11713;48.506;8.966;2023-07-31T05:11:51;14.60;99.90
23089;DHT22;11713;48.506;8.966;2023-07-31T05:14:17;14.70;99.90
23089;DHT22;11713;48.506;8.966;2023-07-31T05:16:43;14.80;99.90
23089;DHT22;11713;48.506;8.966;2023-07-31T05:19:08;14.90;99.90
23089;DHT22;11713;48.506;8.966;2023-07-31T05:21:34;14.90;99.90
23089;DHT22;11713;48.506;8.966;2023-07-31T05:24:00;15.00;99.90
23089;DHT22;11713;48.506;8.966;2023-07-31T05:26:26;15.10;99.90
23089;DHT22;11713;48.506;8.966;2023-07-31T05:28:51;15.20;99.90
23089;DHT22;11713;48.506;8.966;2023-07-31T05:31:17;15.30;99.90
23089;DHT22;11713;48.506;8.966;2023-07-31T05:33:43;15.40;99.90
23089;DHT22;11713;48.506;8.966;2023-07-31T05:36:09;15.50;99.90
23089;DHT22;11713;48.506;8.966;2023-07-31T05:38:35;15.60;99.90
23089;DHT22;11713;48.506;8.966;2023-07-31T05:41:00;15.60;99.90
23089;DHT22;11713;48.506;8.966;2023-07-31T05:43:26;15.70;99.90
23089;DHT22;11713;48.506;8.966;2023-07-31T05:45:52;15.70;99.90
23089;DHT22;11713;48.506;8.966;2023-07-31T05:48:18;15.80;99.90
23089;DHT22;11713;48.506;8.966;2023-07-31T05:50:44;15.80;99.90
23089;DHT22;11713;48.506;8.966;2023-07-31T05:53:10;15.90;99.90
23089;DHT22;11713;48.506;8.966;2023-07-31T05:55:37;16.00;99.90
23089;DHT22;11713;48.506;8.966;2023-07-31T05:58:03;16.10;99.90
23089;DHT22;11713;48.506;8.966;2023-07-31T06:00:29;16.10;99.90
23089;DHT22;11713;48.506;8.966;2023-07-31T06:02:55;16.10;99.90
23089;DHT22;11713;48.506;8.966;2023-07-31T06:05:21;16.10;99.90
23089;DHT22;11713;48.506;8.966;2023-07-31T06:07:47;16.20;99.90
23089;DHT22;11713;48.506;8.966;2023-07-31T06:10:13;16.20;99.90
23089;DHT22;11713;48.506;8.966;2023-07-31T06:12:38;16.20;99.90
23089;DHT22;11713;48.506;8.966;2023-07-31T06:15:05;16.20;99.90
23089;DHT22;11713;48.506;8.966;2023-07-31T06:17:31;16.30;99.90
23089;DHT22;11713;48.506;8.966;2023-07-31T06:19:57;16.30;99.90
23089;DHT22;11713;48.506;8.966;2023-07-31T06:22:23;16.30;99.90
23089;DHT22;11713;48.506;8.966;2023-07-31T06:24:48;16.40;99.90
23089;DHT22;11713;48.506;8.966;2023-07-31T06:27:14;16.40;99.90
23089;DHT22;11713;48.506;8.966;2023-07-31T06:29:40;16.50;99.90
23089;DHT22;11713;48.506;8.966;2023-07-31T06:32:07;16.60;99.90
23089;DHT22;11713;48.506;8.966;2023-07-31T06:34:33;16.80;99.90
23089;DHT22;11713;48.506;8.966;2023-07-31T06:36:58;16.90;99.90
23089;DHT22;11713;48.506;8.966;2023-07-31T06:39:24;17.10;99.90
23089;DHT22;11713;48.506;8.966;2023-07-31T06:41:50;17.30;99.90
23089;DHT22;11713;48.506;8.966;2023-07-31T06:44:16;17.40;99.90
23089;DHT22;11713;48.506;8.966;2023-07-31T06:46:42;17.60;99.90
23089;DHT22;11713;48.506;8.966;2023-07-31T06:49:08;17.70;99.90
23089;DHT22;11713;48.506;8.966;2023-07-31T06:51:34;17.80;99.90
23089;DHT22;11713;48.506;8.966;2023-07-31T06:54:01;17.80;99.90
23089;DHT22;11713;48.506;8.966;2023-07-31T06:56:27;17.80;99.90
23089;DHT22;11713;48.506;8.966;2023-07-31T06:58:53;17.80;99.90
23089;DHT22;11713;48.506;8.966;2023-07-31T07:01:19;17.80;99.90
23089;DHT22;11713;48.506;8.966;2023-07-31T07:03:44;17.80;99.90
23089;DHT22;11713;48.506;8.966;2023-07-31T07:06:10;17.80;99.90
23089;DHT22;11713;48.506;8.966;2023-07-31T07:08:36;17.80;99.90
23089;DHT22;11713;48.506;8.966;2023-07-31T07:11:02;17.90;99.90
23089;DHT22;11713;48.506;8.966;2023-07-31T07:13:28;18.00;99.90
23089;DHT22;11713;48.506;8.966;2023-07-31T07:15:54;18.10;99.90
23089;DHT22;11713;48.506;8.966;2023-07-31T07:18:20;18.10;99.90
23089;DHT22;11713;48.506;8.966;2023-07-31T07:20:51;18.20;99.90
23089;DHT22;11713;48.506;8.966;2023-07-31T07:23:18;18.20;99.90
23089;DHT22;11713;48.506;8.966;2023-07-31T07:25:45;18.30;99.90
23089;DHT22;11713;48.506;8.966;2023-07-31T07:28:11;18.40;99.90
23089;DHT22;11713;48.506;8.966;2023-07-31T07:30:38;18.50;99.90
23089;DHT22;11713;48.506;8.966;2023-07-31T07:33:04;18.60;99.90
23089;DHT22;11713;48.506;8.966;2023-07-31T07:35:29;18.80;99.90
23089;DHT22;11713;48.506;8.966;2023-07-31T07:37:55;18.80;99.90
23089;DHT22;11713;48.506;8.966;2023-07-31T07:40:22;18.80;99.90
23089;DHT22;11713;48.506;8.966;2023-07-31T07:42:48;18.90;99.90
23089;DHT22;11713;48.506;8.966;2023-07-31T07:45:13;18.90;99.90
23089;DHT22;11713;48.506;8.966;2023-07-31T07:47:41;19.00;99.90
23089;DHT22;11713;48.506;8.966;2023-07-31T07:50:07;19.00;99.90
23089;DHT22;11713;48.506;8.966;2023-07-31T07:52:33;19.10;99.90
23089;DHT22;11713;48.506;8.966;2023-07-31T07:54:59;19.20;99.90
23089;DHT22;11713;48.506;8.966;2023-07-31T07:57:26;19.30;99.90
23089;DHT22;11713;48.506;8.966;2023-07-31T07:59:52;19.40;99.90
23089;DHT22;11713;48.506;8.966;2023-07-31T08:02:18;19.50;99.90
23089;DHT22;11713;48.506;8.966;2023-07-31T08:04:43;19.60;99.90
23089;DHT22;11713;48.506;8.966;2023-07-31T08:07:13;19.70;99.90
23089;DHT22;11713;48.506;8.966;2023-07-31T08:09:39;19.90;99.90
23089;DHT22;11713;48.506;8.966;2023-07-31T08:12:06;20.10;99.90
23089;DHT22;11713;48.506;8.966;2023-07-31T08:14:32;20.10;99.90
23089;DHT22;11713;48.506;8.966;2023-07-31T08:16:58;20.20;99.90
23089;DHT22;11713;48.506;8.966;2023-07-31T08:19:24;20.30;99.90
23089;DHT22;11713;48.506;8.966;2023-07-31T08:21:50;20.30;99.90
23089;DHT22;11713;48.506;8.966;2023-07-31T08:24:16;20.40;99.90
23089;DHT22;11713;48.506;8.966;2023-07-31T08:26:42;20.60;99.90
23089;DHT22;11713;48.506;8.966;2023-07-31T08:29:08;20.60;99.90
23089;DHT22;11713;48.506;8.966;2023-07-31T08:31:34;20.70;99.90
23089;DHT22;11713;48.506;8.966;2023-07-31T08:34:00;20.60;99.90
23089;DHT22;11713;48.506;8.966;2023-07-31T08:36:26;20.60;99.90
23089;DHT22;11713;48.506;8.966;2023-07-31T08:38:52;20.50;99.90
23089;DHT22;11713;48.506;8.966;2023-07-31T08:41:18;20.40;99.90
23089;DHT22;11713;48.506;8.966;2023-07-31T08:43:48;20.30;99.90
23089;DHT22;11713;48.506;8.966;2023-07-31T08:46:15;20.20;99.90
23089;DHT22;11713;48.506;8.966;2023-07-31T08:48:42;20.10;99.90
23089;DHT22;11713;48.506;8.966;2023-07-31T08:51:10;20.20;99.90
23089;DHT22;11713;48.506;8.966;2023-07-31T08:53:36;20.50;99.90
23089;DHT22;11713;48.506;8.966;2023-07-31T08:56:02;20.60;99.90
23089;DHT22;11713;48.506;8.966;2023-07-31T08:58:32;20.80;99.90
23089;DHT22;11713;48.506;8.966;2023-07-31T09:01:01;20.90;99.90
23089;DHT22;11713;48.506;8.966;2023-07-31T09:03:33;20.80;99.90
23089;DHT22;11713;48.506;8.966;2023-07-31T09:05:59;20.70;99.90
23089;DHT22;11713;48.506;8.966;2023-07-31T09:08:29;20.80;99.90
23089;DHT22;11713;48.506;8.966;2023-07-31T09:11:00;21.00;99.90
23089;DHT22;11713;48.506;8.966;2023-07-31T09:13:29;21.20;99.90
23089;DHT22;11713;48.506;8.966;2023-07-31T09:15:55;21.40;99.90
23089;DHT22;11713;48.506;8.966;2023-07-31T09:18:21;21.40;99.90
23089;DHT22;11713;48.506;8.966;2023-07-31T09:21:04;21.50;99.90
23089;DHT22;11713;48.506;8.966;2023-07-31T09:23:43;21.40;99.90
23089;DHT22;11713;48.506;8.966;2023-07-31T09:26:10;21.50;99.90
23089;DHT22;11713;48.506;8.966;2023-07-31T09:28:36;21.60;99.90
23089;DHT22;11713;48.506;8.966;2023-07-31T09:31:03;21.50;99.90
23089;DHT22;11713;48.506;8.966;2023-07-31T09:33:29;21.50;99.90
23089;DHT22;11713;48.506;8.966;2023-07-31T09:35:59;21.40;99.90
23089;DHT22;11713;48.506;8.966;2023-07-31T09:38:26;21.50;99.90
23089;DHT22;11713;48.506;8.966;2023-07-31T09:40:52;21.60;99.90
23089;DHT22;11713;48.506;8.966;2023-07-31T09:43:19;21.50;99.90
23089;DHT22;11713;48.506;8.966;2023-07-31T09:45:46;21.60;99.90
23089;DHT22;11713;48.506;8.966;2023-07-31T09:48:14;21.60;99.90
23089;DHT22;11713;48.506;8.966;2023-07-31T09:50:46;21.60;99.90
23089;DHT22;11713;48.506;8.966;2023-07-31T09:53:13;21.70;99.90
23089;DHT22;11713;48.506;8.966;2023-07-31T09:55:40;21.80;99.90
23089;DHT22;11713;48.506;8.966;2023-07-31T09:58:08;22.20;99.90
23089;DHT22;11713;48.506;8.966;2023-07-31T10:00:35;22.20;99.90
23089;DHT22;11713;48.506;8.966;2023-07-31T10:03:04;22.30;99.90
23089;DHT22;11713;48.506;8.966;2023-07-31T10:05:34;22.30;99.90
23089;DHT22;11713;48.506;8.966;2023-07-31T10:07:59;22.30;99.90
23089;DHT22;11713;48.506;8.966;2023-07-31T10:10:27;22.20;99.90
23089;DHT22;11713;48.506;8.966;2023-07-31T10:12:54;22.40;99.90
23089;DHT22;11713;48.506;8.966;2023-07-31T10:15:20;22.60;99.90
23089;DHT22;11713;48.506;8.966;2023-07-31T10:17:48;22.70;99.90
23089;DHT22;11713;48.506;8.966;2023-07-31T10:20:16;22.90;99.90
23089;DHT22;11713;48.506;8.966;2023-07-31T10:22:43;23.10;99.90
23089;DHT22;11713;48.506;8.966;2023-07-31T10:25:09;23.20;99.90
23089;DHT22;11713;48.506;8.966;2023-07-31T10:27:38;23.30;99.90
23089;DHT22;11713;48.506;8.966;2023-07-31T10:30:06;23.30;99.90
23089;DHT22;11713;48.506;8.966;2023-07-31T10:32:33;23.30;99.90
23089;DHT22;11713;48.506;8.966;2023-07-31T10:35:03;23.50;99.90
23089;DHT22;11713;48.506;8.966;2023-07-31T10:37:36;23.50;99.90
23089;DHT22;11713;48.506;8.966;2023-07-31T10:40:11;23.50;99.90
23089;DHT22;11713;48.506;8.966;2023-07-31T10:42:48;23.30;99.90
23089;DHT22;11713;48.506;8.966;2023-07-31T10:45:41;23.10;99.90
23089;DHT22;11713;48.506;8.966;2023-07-31T10:48:15;23.20;99.90
23089;DHT22;11713;48.506;8.966;2023-07-31T10:53:30;23.40;99.90
23089;DHT22;11713;48.506;8.966;2023-07-31T10:56:00;23.40;99.90
23089;DHT22;11713;48.506;8.966;2023-07-31T10:58:27;23.60;99.90
23089;DHT22;11713;48.506;8.966;2023-07-31T11:00:57;23.80;99.90
23089;DHT22;11713;48.506;8.966;2023-07-31T11:03:47;24.00;99.90
23089;DHT22;11713;48.506;8.966;2023-07-31T11:06:15;24.10;99.90
23089;DHT22;11713;48.506;8.966;2023-07-31T11:08:47;24.20;99.90
23089;DHT22;11713;48.506;8.966;2023-07-31T11:11:15;24.30;99.90
23089;DHT22;11713;48.506;8.966;2023-07-31T11:13:52;24.30;99.90
23089;DHT22;11713;48.506;8.966;2023-07-31T11:16:24;23.90;99.90
23089;DHT22;11713;48.506;8.966;2023-07-31T11:18:51;23.90;99.90
23089;DHT22;11713;48.506;8.966;2023-07-31T11:21:23;24.10;99.90
23089;DHT22;11713;48.506;8.966;2023-07-31T11:23:51;24.20;99.90
23089;DHT22;11713;48.506;8.966;2023-07-31T11:26:18;24.20;99.90
23089;DHT22;11713;48.506;8.966;2023-07-31T11:28:46;24.20;99.90
23089;DHT22;11713;48.506;8.966;2023-07-31T11:31:14;24.10;99.90
23089;DHT22;11713;48.506;8.966;2023-07-31T11:33:40;24.20;99.90
23089;DHT22;11713;48.506;8.966;2023-07-31T11:36:06;24.20;99.90
23089;DHT22;11713;48.506;8.966;2023-07-31T11:38:33;24.20;99.90
23089;DHT22;11713;48.506;8.966;2023-07-31T11:41:01;24.10;99.90
23089;DHT22;11713;48.506;8.966;2023-07-31T11:43:34;24.10;99.90
23089;DHT22;11713;48.506;8.966;2023-07-31T11:46:02;24.20;99.90
23089;DHT22;11713;48.506;8.966;2023-07-31T11:48:34;24.20;99.90
23089;DHT22;11713;48.506;8.966;2023-07-31T11:51:03;24.00;99.90
23089;DHT22;11713;48.506;8.966;2023-07-31T11:56:04;23.60;99.90
23089;DHT22;11713;48.506;8.966;2023-07-31T11:58:33;23.50;99.90
23089;DHT22;11713;48.506;8.966;2023-07-31T12:01:00;23.40;99.90
23089;DHT22;11713;48.506;8.966;2023-07-31T12:03:27;23.30;99.90
23089;DHT22;11713;48.506;8.966;2023-07-31T12:05:53;23.30;99.90
23089;DHT22;11713;48.506;8.966;2023-07-31T12:08:21;23.30;99.90
23089;DHT22;11713;48.506;8.966;2023-07-31T12:10:52;23.30;99.90
23089;DHT22;11713;48.506;8.966;2023-07-31T12:13:26;23.40;99.90
23089;DHT22;11713;48.506;8.966;2023-07-31T12:16:03;23.40;99.90
23089;DHT22;11713;48.506;8.966;2023-07-31T12:18:33;23.60;99.90
23089;DHT22;11713;48.506;8.966;2023-07-31T12:21:00;23.80;99.90
23089;DHT22;11713;48.506;8.966;2023-07-31T12:23:31;23.70;99.90
23089;DHT22;11713;48.506;8.966;2023-07-31T12:26:06;23.90;99.90
23089;DHT22;11713;48.506;8.966;2023-07-31T12:28:40;24.10;99.90
23089;DHT22;11713;48.506;8.966;2023-07-31T12:31:09;24.30;99.90
23089;DHT22;11713;48.506;8.966;2023-07-31T12:33:39;24.60;99.90
23089;DHT22;11713;48.506;8.966;2023-07-31T12:36:13;24.80;99.90
23089;DHT22;11713;48.506;8.966;2023-07-31T12:38:41;24.80;99.90
23089;DHT22;11713;48.506;8.966;2023-07-31T12:41:07;24.80;99.90
23089;DHT22;11713;48.506;8.966;2023-07-31T12:43:36;24.90;99.90
23089;DHT22;11713;48.506;8.966;2023-07-31T12:46:03;24.90;99.90
23089;DHT22;11713;48.506;8.966;2023-07-31T12:48:30;24.90;99.90
23089;DHT22;11713;48.506;8.966;2023-07-31T12:50:55;24.60;99.90
23089;DHT22;11713;48.506;8.966;2023-07-31T12:53:21;24.50;99.90
23089;DHT22;11713;48.506;8.966;2023-07-31T12:55:47;24.40;99.90
23089;DHT22;11713;48.506;8.966;2023-07-31T12:58:13;24.30;99.90
23089;DHT22;11713;48.506;8.966;2023-07-31T13:00:39;24.30;99.90
23089;DHT22;11713;48.506;8.966;2023-07-31T13:03:05;24.20;99.90
23089;DHT22;11713;48.506;8.966;2023-07-31T13:05:30;24.10;99.90
23089;DHT22;11713;48.506;8.966;2023-07-31T13:07:56;24.10;99.90
23089;DHT22;11713;48.506;8.966;2023-07-31T13:10:23;24.00;99.90
23089;DHT22;11713;48.506;8.966;2023-07-31T13:12:49;23.90;99.90
23089;DHT22;11713;48.506;8.966;2023-07-31T13:15:15;23.90;99.90
23089;DHT22;11713;48.506;8.966;2023-07-31T13:17:42;23.90;99.90
23089;DHT22;11713;48.506;8.966;2023-07-31T13:20:08;23.80;99.90
23089;DHT22;11713;48.506;8.966;2023-07-31T13:22:34;23.70;99.90
23089;DHT22;11713;48.506;8.966;2023-07-31T13:24:59;23.40;99.90
23089;DHT22;11713;48.506;8.966;2023-07-31T13:27:27;23.30;99.90
23089;DHT22;11713;48.506;8.966;2023-07-31T13:29:55;23.20;99.90
23089;DHT22;11713;48.506;8.966;2023-07-31T13:32:21;23.10;99.90
23089;DHT22;11713;48.506;8.966;2023-07-31T13:34:48;23.00;99.90
23089;DHT22;11713;48.506;8.966;2023-07-31T13:37:14;22.90;99.90
23089;DHT22;11713;48.506;8.966;2023-07-31T13:39:41;22.90;99.90
23089;DHT22;11713;48.506;8.966;2023-07-31T13:42:08;22.80;99.90
23089;DHT22;11713;48.506;8.966;2023-07-31T13:44:38;22.80;99.90
23089;DHT22;11713;48.506;8.966;2023-07-31T13:47:06;22.70;99.90
23089;DHT22;11713;48.506;8.966;2023-07-31T13:49:38;22.60;99.90
23089;DHT22;11713;48.506;8.966;2023-07-31T13:52:09;22.60;99.90
23089;DHT22;11713;48.506;8.966;2023-07-31T13:54:36;22.70;99.90
23089;DHT22;11713;48.506;8.966;2023-07-31T13:57:03;22.60;99.90
23089;DHT22;11713;48.506;8.966;2023-07-31T13:59:29;22.50;99.90
23089;DHT22;11713;48.506;8.966;2023-07-31T14:01:54;22.40;99.90
23089;DHT22;11713;48.506;8.966;2023-07-31T14:04:20;22.30;99.90
23089;DHT22;11713;48.506;8.966;2023-07-31T14:06:46;22.30;99.90
23089;DHT22;11713;48.506;8.966;2023-07-31T14:09:14;22.30;99.90
23089;DHT22;11713;48.506;8.966;2023-07-31T14:11:40;22.40;99.90
23089;DHT22;11713;48.506;8.966;2023-07-31T14:14:06;22.40;99.90
23089;DHT22;11713;48.506;8.966;2023-07-31T14:16:32;22.40;99.90
23089;DHT22;11713;48.506;8.966;2023-07-31T14:18:58;22.40;99.90
23089;DHT22;11713;48.506;8.966;2023-07-31T14:21:25;22.40;99.90
23089;DHT22;11713;48.506;8.966;2023-07-31T14:23:52;22.30;99.90
23089;DHT22;11713;48.506;8.966;2023-07-31T14:26:18;22.30;99.90
23089;DHT22;11713;48.506;8.966;2023-07-31T14:28:44;22.40;99.90
23089;DHT22;11713;48.506;8.966;2023-07-31T14:31:09;22.30;99.90
23089;DHT22;11713;48.506;8.966;2023-07-31T14:33:35;22.40;99.90
23089;DHT22;11713;48.506;8.966;2023-07-31T14:36:01;22.40;99.90
23089;DHT22;11713;48.506;8.966;2023-07-31T14:38:27;22.50;99.90
23089;DHT22;11713;48.506;8.966;2023-07-31T14:40:53;22.50;99.90
23089;DHT22;11713;48.506;8.966;2023-07-31T14:43:19;22.50;99.90
23089;DHT22;11713;48.506;8.966;2023-07-31T14:45:45;22.50;99.90
23089;DHT22;11713;48.506;8.966;2023-07-31T14:48:12;22.50;99.90
23089;DHT22;11713;48.506;8.966;2023-07-31T14:50:38;22.50;99.90
23089;DHT22;11713;48.506;8.966;2023-07-31T14:53:04;22.50;99.90
23089;DHT22;11713;48.506;8.966;2023-07-31T14:55:30;22.50;99.90
23089;DHT22;11713;48.506;8.966;2023-07-31T14:57:56;22.50;99.90
23089;DHT22;11713;48.506;8.966;2023-07-31T15:00:21;22.60;99.90
23089;DHT22;11713;48.506;8.966;2023-07-31T15:02:49;22.60;99.90
23089;DHT22;11713;48.506;8.966;2023-07-31T15:05:15;22.60;99.90
23089;DHT22;11713;48.506;8.966;2023-07-31T15:07:41;22.70;99.90
23089;DHT22;11713;48.506;8.966;2023-07-31T15:10:08;22.70;99.90
23089;DHT22;11713;48.506;8.966;2023-07-31T15:12:34;22.80;99.90
23089;DHT22;11713;48.506;8.966;2023-07-31T15:15:00;22.80;99.90
23089;DHT22;11713;48.506;8.966;2023-07-31T15:17:26;22.80;99.90
23089;DHT22;11713;48.506;8.966;2023-07-31T15:19:52;22.80;99.90
23089;DHT22;11713;48.506;8.966;2023-07-31T15:22:20;22.80;99.90
23089;DHT22;11713;48.506;8.966;2023-07-31T15:24:45;22.80;99.90
23089;DHT22;11713;48.506;8.966;2023-07-31T15:27:11;22.90;99.90
23089;DHT22;11713;48.506;8.966;2023-07-31T15:29:37;22.80;99.90
23089;DHT22;11713;48.506;8.966;2023-07-31T15:32:04;22.80;99.90
23089;DHT22;11713;48.506;8.966;2023-07-31T15:34:30;22.70;99.90
23089;DHT22;11713;48.506;8.966;2023-07-31T15:36:57;22.70;99.90
23089;DHT22;11713;48.506;8.966;2023-07-31T15:39:23;22.80;99.90
23089;DHT22;11713;48.506;8.966;2023-07-31T15:41:49;22.70;99.90